PWSweather.com
Personal Weather Stations
Station Observations
METEOC500
Santo Antonio, FunchalPT 2020

Santo AntonioFunchalPT 2020

Lat: 32.678227, Lon: -16.945054

Elevation: 1669.94751

Station Type: WH Series

High Low Average
Temperature 68.5°F20.3°C 59.2°F15.1°C 63.1°F17.3°C
Dew Point 63.1°F17.3°C 54.1°F12.3°C 58.5°F14.7°C
Winds 7.6 mph 12.2 kmh Calm Calm 3.0 mph W4.8 kmh W
Wind Gusts 12.5 mph20.1 kmh -- 8.0 mph12.9 kmh
Humidity 91% 76% 85%
Pressure 30.17 in1021.7 mb 30.03 in1016.9 mb -
Precipitation 0.00 in0.0 mm - -
Hour Temp Dew Point Humidity Winds Wind Gusts Pressure Precip Precip Rate Daily Precip Total
12:03 AM 62.2°F16.8°C 59.2°F15.1°C 90% 3.4 mph NNW5.5 kmh NNW 7.6 mph12.2 kmh 30.04 in1017.3 mb 0.00 in0.0 mm 0.00 in0.0 mm 0.00 in0.0 mm
12:18 AM 62.1°F16.7°C 58.8°F14.9°C 89% 4.0 mph NNW6.4 kmh NNW 10.1 mph16.3 kmh 30.03 in1016.9 mb 0.00 in0.0 mm 0.00 in0.0 mm 0.00 in0.0 mm
12:33 AM 62.2°F16.8°C 59.2°F15.1°C 90% 3.4 mph NW5.5 kmh NW 7.6 mph12.2 kmh 30.03 in1016.9 mb 0.00 in0.0 mm 0.00 in0.0 mm 0.00 in0.0 mm
12:48 AM 62.2°F16.8°C 58.6°F14.8°C 88% 6.9 mph N11.1 kmh N 10.1 mph16.3 kmh 30.03 in1016.9 mb 0.00 in0.0 mm 0.00 in0.0 mm 0.00 in0.0 mm
01:03 AM 62.4°F16.9°C 58.8°F14.9°C 88% 6.9 mph N11.1 kmh N 12.5 mph20.1 kmh 30.04 in1017.3 mb 0.00 in0.0 mm 0.00 in0.0 mm 0.00 in0.0 mm
01:18 AM 62.4°F16.9°C 59.2°F15.1°C 89% 4.0 mph NNW6.4 kmh NNW 7.6 mph12.2 kmh 30.04 in1017.3 mb 0.00 in0.0 mm 0.00 in0.0 mm 0.00 in0.0 mm
01:33 AM 62.1°F16.7°C 59.2°F15.1°C 90% 1.8 mph NNW2.9 kmh NNW 10.1 mph16.3 kmh 30.04 in1017.3 mb 0.00 in0.0 mm 0.00 in0.0 mm 0.00 in0.0 mm
01:48 AM 61.7°F16.5°C 59.0°F15.0°C 91% 2.5 mph N4.0 kmh N 7.6 mph12.2 kmh 30.03 in1016.9 mb 0.00 in0.0 mm 0.00 in0.0 mm 0.00 in0.0 mm
02:03 AM 61.7°F16.5°C 58.8°F14.9°C 90% 7.6 mph NNW12.2 kmh NNW 10.1 mph16.3 kmh 30.03 in1016.9 mb 0.00 in0.0 mm 0.00 in0.0 mm 0.00 in0.0 mm
02:18 AM 62.1°F16.7°C 59.2°F15.1°C 90% 2.5 mph NW4.0 kmh NW 10.1 mph16.3 kmh 30.04 in1017.3 mb 0.00 in0.0 mm 0.00 in0.0 mm 0.00 in0.0 mm
02:33 AM 62.1°F16.7°C 59.4°F15.2°C 91% Calm Calm 4.9 mph7.9 kmh 30.03 in1016.9 mb 0.00 in0.0 mm 0.00 in0.0 mm 0.00 in0.0 mm
02:48 AM 61.9°F16.6°C 59.2°F15.1°C 91% 6.0 mph NNW9.7 kmh NNW 7.6 mph12.2 kmh 30.03 in1016.9 mb 0.00 in0.0 mm 0.00 in0.0 mm 0.00 in0.0 mm
03:03 AM 61.7°F16.5°C 59.0°F15.0°C 91% 7.2 mph NNW11.6 kmh NNW 10.1 mph16.3 kmh 30.03 in1016.9 mb 0.00 in0.0 mm 0.00 in0.0 mm 0.00 in0.0 mm
03:18 AM 61.7°F16.5°C 59.0°F15.0°C 91% 4.5 mph NNW7.2 kmh NNW 10.1 mph16.3 kmh 30.04 in1017.3 mb 0.00 in0.0 mm 0.00 in0.0 mm 0.00 in0.0 mm
03:34 AM 61.5°F16.4°C 58.6°F14.8°C 90% 4.0 mph N6.4 kmh N 7.6 mph12.2 kmh 30.04 in1017.3 mb 0.00 in0.0 mm 0.00 in0.0 mm 0.00 in0.0 mm
03:49 AM 61.5°F16.4°C 58.6°F14.8°C 90% 1.3 mph NW2.1 kmh NW 10.1 mph16.3 kmh 30.04 in1017.3 mb 0.00 in0.0 mm 0.00 in0.0 mm 0.00 in0.0 mm
04:04 AM 61.5°F16.4°C 58.3°F14.6°C 89% 2.9 mph N4.7 kmh N 7.6 mph12.2 kmh 30.04 in1017.3 mb 0.00 in0.0 mm 0.00 in0.0 mm 0.00 in0.0 mm
04:19 AM 61.9°F16.6°C 58.6°F14.8°C 89% 1.8 mph N2.9 kmh N 7.6 mph12.2 kmh 30.04 in1017.3 mb 0.00 in0.0 mm 0.00 in0.0 mm 0.00 in0.0 mm
04:34 AM 61.7°F16.5°C 58.8°F14.9°C 90% Calm Calm 4.9 mph7.9 kmh 30.04 in1017.3 mb 0.00 in0.0 mm 0.00 in0.0 mm 0.00 in0.0 mm
04:49 AM 61.7°F16.5°C 58.8°F14.9°C 90% 6.0 mph NNW9.7 kmh NNW 10.1 mph16.3 kmh 30.04 in1017.3 mb 0.00 in0.0 mm 0.00 in0.0 mm 0.00 in0.0 mm
05:04 AM 61.7°F16.5°C 58.8°F14.9°C 90% 1.8 mph NW2.9 kmh NW 7.6 mph12.2 kmh 30.04 in1017.3 mb 0.00 in0.0 mm 0.00 in0.0 mm 0.00 in0.0 mm
05:19 AM 61.5°F16.4°C 58.6°F14.8°C 90% 6.3 mph NNW10.1 kmh NNW 10.1 mph16.3 kmh 30.04 in1017.3 mb 0.00 in0.0 mm 0.00 in0.0 mm 0.00 in0.0 mm
05:34 AM 61.3°F16.3°C 58.5°F14.7°C 90% 6.3 mph NNW10.1 kmh NNW 10.1 mph16.3 kmh 30.04 in1017.3 mb 0.00 in0.0 mm 0.00 in0.0 mm 0.00 in0.0 mm
05:49 AM 61.2°F16.2°C 57.6°F14.2°C 88% 5.6 mph NNW9.0 kmh NNW 10.1 mph16.3 kmh 30.04 in1017.3 mb 0.00 in0.0 mm 0.00 in0.0 mm 0.00 in0.0 mm
06:04 AM 60.8°F16.0°C 57.2°F14.0°C 88% 1.8 mph NNW2.9 kmh NNW 10.1 mph16.3 kmh 30.04 in1017.3 mb 0.00 in0.0 mm 0.00 in0.0 mm 0.00 in0.0 mm
06:19 AM 60.4°F15.8°C 57.2°F14.0°C 89% 7.6 mph NW12.2 kmh NW 12.5 mph20.1 kmh 30.05 in1017.6 mb 0.00 in0.0 mm 0.00 in0.0 mm 0.00 in0.0 mm
06:34 AM 60.3°F15.7°C 56.3°F13.5°C 87% 6.5 mph NNW10.5 kmh NNW 12.5 mph20.1 kmh 30.05 in1017.6 mb 0.00 in0.0 mm 0.00 in0.0 mm 0.00 in0.0 mm
06:49 AM 60.1°F15.6°C 55.2°F12.9°C 84% 4.7 mph NNW7.6 kmh NNW 12.5 mph20.1 kmh 30.06 in1017.9 mb 0.00 in0.0 mm 0.00 in0.0 mm 0.00 in0.0 mm
07:05 AM 59.9°F15.5°C 54.3°F12.4°C 82% 4.5 mph N7.2 kmh N 10.1 mph16.3 kmh 30.06 in1017.9 mb 0.00 in0.0 mm 0.00 in0.0 mm 0.00 in0.0 mm
07:20 AM 59.9°F15.5°C 54.1°F12.3°C 81% 6.5 mph NNW10.5 kmh NNW 10.1 mph16.3 kmh 30.06 in1017.9 mb 0.00 in0.0 mm 0.00 in0.0 mm 0.00 in0.0 mm
07:35 AM 60.3°F15.7°C 54.7°F12.6°C 82% 4.5 mph N7.2 kmh N 7.6 mph12.2 kmh 30.07 in1018.3 mb 0.00 in0.0 mm 0.00 in0.0 mm 0.00 in0.0 mm
07:50 AM 60.1°F15.6°C 54.3°F12.4°C 81% 1.3 mph NW2.1 kmh NW 10.1 mph16.3 kmh 30.07 in1018.3 mb 0.00 in0.0 mm 0.00 in0.0 mm 0.00 in0.0 mm
08:05 AM 60.3°F15.7°C 54.3°F12.4°C 81% 0.9 mph NNW1.4 kmh NNW 10.1 mph16.3 kmh 30.08 in1018.6 mb 0.00 in0.0 mm 0.00 in0.0 mm 0.00 in0.0 mm
08:20 AM 60.8°F16.0°C 54.7°F12.6°C 80% 6.0 mph N9.7 kmh N 10.1 mph16.3 kmh 30.09 in1019.0 mb 0.00 in0.0 mm 0.00 in0.0 mm 0.00 in0.0 mm
08:35 AM 61.5°F16.4°C 55.6°F13.1°C 81% 0.7 mph NNW1.1 kmh NNW 7.6 mph12.2 kmh 30.09 in1019.0 mb 0.00 in0.0 mm 0.00 in0.0 mm 0.00 in0.0 mm
08:50 AM 62.2°F16.8°C 56.3°F13.5°C 81% 3.1 mph NNW5.0 kmh NNW 7.6 mph12.2 kmh 30.10 in1019.3 mb 0.00 in0.0 mm 0.00 in0.0 mm 0.00 in0.0 mm
09:05 AM 63.1°F17.3°C 56.5°F13.6°C 79% 0.2 mph N0.3 kmh N 7.6 mph12.2 kmh 30.10 in1019.3 mb 0.00 in0.0 mm 0.00 in0.0 mm 0.00 in0.0 mm
09:20 AM 65.8°F18.8°C 58.1°F14.5°C 76% 0.7 mph SE1.1 kmh SE 4.9 mph7.9 kmh 30.11 in1019.6 mb 0.00 in0.0 mm 0.00 in0.0 mm 0.00 in0.0 mm
09:35 AM 68.4°F20.2°C 61.5°F16.4°C 79% 1.8 mph S2.9 kmh S 7.6 mph12.2 kmh 30.11 in1019.6 mb 0.00 in0.0 mm 0.00 in0.0 mm 0.00 in0.0 mm
09:50 AM 68.5°F20.3°C 61.3°F16.3°C 78% 4.9 mph SSW7.9 kmh SSW 10.1 mph16.3 kmh 30.11 in1019.6 mb 0.00 in0.0 mm 0.00 in0.0 mm 0.00 in0.0 mm
10:05 AM 68.4°F20.2°C 62.2°F16.8°C 81% 2.5 mph S4.0 kmh S 10.1 mph16.3 kmh 30.12 in1020.0 mb 0.00 in0.0 mm 0.00 in0.0 mm 0.00 in0.0 mm
10:20 AM 68.0°F20.0°C 62.6°F17.0°C 83% 2.9 mph S4.7 kmh S 10.1 mph16.3 kmh 30.14 in1020.7 mb 0.00 in0.0 mm 0.00 in0.0 mm 0.00 in0.0 mm
10:36 AM 67.6°F19.8°C 61.2°F16.2°C 80% 4.9 mph SSE7.9 kmh SSE 10.1 mph16.3 kmh 30.13 in1020.3 mb 0.00 in0.0 mm 0.00 in0.0 mm 0.00 in0.0 mm
10:51 AM 68.0°F20.0°C 61.9°F16.6°C 81% 3.1 mph S5.0 kmh S 7.6 mph12.2 kmh 30.13 in1020.3 mb 0.00 in0.0 mm 0.00 in0.0 mm 0.00 in0.0 mm
11:06 AM 67.5°F19.7°C 63.1°F17.3°C 86% 5.4 mph S8.7 kmh S 10.1 mph16.3 kmh 30.14 in1020.7 mb 0.00 in0.0 mm 0.00 in0.0 mm 0.00 in0.0 mm
11:21 AM 66.4°F19.1°C 61.3°F16.3°C 84% 1.6 mph ESE2.6 kmh ESE 7.6 mph12.2 kmh 30.14 in1020.7 mb 0.00 in0.0 mm 0.00 in0.0 mm 0.00 in0.0 mm
11:36 AM 66.9°F19.4°C 59.5°F15.3°C 77% 6.5 mph SSE10.5 kmh SSE 12.5 mph20.1 kmh 30.13 in1020.3 mb 0.00 in0.0 mm 0.00 in0.0 mm 0.00 in0.0 mm
11:51 AM 67.5°F19.7°C 63.1°F17.3°C 86% 3.1 mph S5.0 kmh S 7.6 mph12.2 kmh 30.12 in1020.0 mb 0.00 in0.0 mm 0.00 in0.0 mm 0.00 in0.0 mm
12:06 PM 66.6°F19.2°C 62.2°F16.8°C 86% 3.4 mph SW5.5 kmh SW 7.6 mph12.2 kmh 30.12 in1020.0 mb 0.00 in0.0 mm 0.00 in0.0 mm 0.00 in0.0 mm
12:21 PM 66.2°F19.0°C 60.6°F15.9°C 82% 4.9 mph SSW7.9 kmh SSW 10.1 mph16.3 kmh 30.11 in1019.6 mb 0.00 in0.0 mm 0.00 in0.0 mm 0.00 in0.0 mm
12:36 PM 66.6°F19.2°C 60.6°F15.9°C 81% 3.1 mph NNW5.0 kmh NNW 10.1 mph16.3 kmh 30.10 in1019.3 mb 0.00 in0.0 mm 0.00 in0.0 mm 0.00 in0.0 mm
12:51 PM 66.7°F19.3°C 60.8°F16.0°C 81% 2.9 mph S4.7 kmh S 12.5 mph20.1 kmh 30.10 in1019.3 mb 0.00 in0.0 mm 0.00 in0.0 mm 0.00 in0.0 mm
01:06 PM 66.2°F19.0°C 60.6°F15.9°C 82% 2.2 mph S3.5 kmh S 10.1 mph16.3 kmh 30.10 in1019.3 mb 0.00 in0.0 mm 0.00 in0.0 mm 0.00 in0.0 mm
01:21 PM 66.0°F18.9°C 60.1°F15.6°C 81% 5.6 mph S9.0 kmh S 7.6 mph12.2 kmh 30.09 in1019.0 mb 0.00 in0.0 mm 0.00 in0.0 mm 0.00 in0.0 mm
01:36 PM 66.6°F19.2°C 59.9°F15.5°C 79% 2.9 mph SSW4.7 kmh SSW 7.6 mph12.2 kmh 30.08 in1018.6 mb 0.00 in0.0 mm 0.00 in0.0 mm 0.00 in0.0 mm
01:51 PM 66.6°F19.2°C 60.6°F15.9°C 81% 4.7 mph SSE7.6 kmh SSE 10.1 mph16.3 kmh 30.08 in1018.6 mb 0.00 in0.0 mm 0.00 in0.0 mm 0.00 in0.0 mm
02:07 PM 65.7°F18.7°C 59.7°F15.4°C 81% 1.6 mph S2.6 kmh S 7.6 mph12.2 kmh 30.07 in1018.3 mb 0.00 in0.0 mm 0.00 in0.0 mm 0.00 in0.0 mm
02:22 PM 65.3°F18.5°C 59.0°F15.0°C 80% 3.1 mph SSW5.0 kmh SSW 7.6 mph12.2 kmh 30.07 in1018.3 mb 0.00 in0.0 mm 0.00 in0.0 mm 0.00 in0.0 mm
02:37 PM 65.8°F18.8°C 58.5°F14.7°C 77% 3.8 mph SE6.1 kmh SE 10.1 mph16.3 kmh 30.07 in1018.3 mb 0.00 in0.0 mm 0.00 in0.0 mm 0.00 in0.0 mm
02:52 PM 66.6°F19.2°C 59.5°F15.3°C 78% 1.8 mph S2.9 kmh S 10.1 mph16.3 kmh 30.06 in1017.9 mb 0.00 in0.0 mm 0.00 in0.0 mm 0.00 in0.0 mm
03:07 PM 66.7°F19.3°C 60.4°F15.8°C 80% 2.2 mph S3.5 kmh S 7.6 mph12.2 kmh 30.06 in1017.9 mb 0.00 in0.0 mm 0.00 in0.0 mm 0.00 in0.0 mm
03:22 PM 66.4°F19.1°C 60.1°F15.6°C 80% 0.9 mph E1.4 kmh E 7.6 mph12.2 kmh 30.06 in1017.9 mb 0.00 in0.0 mm 0.00 in0.0 mm 0.00 in0.0 mm
03:37 PM 65.7°F18.7°C 59.7°F15.4°C 81% Calm Calm 7.6 mph12.2 kmh 30.06 in1017.9 mb 0.00 in0.0 mm 0.00 in0.0 mm 0.00 in0.0 mm
03:52 PM 65.7°F18.7°C 59.7°F15.4°C 81% 4.7 mph SSE7.6 kmh SSE 7.6 mph12.2 kmh 30.07 in1018.3 mb 0.00 in0.0 mm 0.00 in0.0 mm 0.00 in0.0 mm
04:07 PM 65.3°F18.5°C 60.3°F15.7°C 84% 0.9 mph SSW1.4 kmh SSW 7.6 mph12.2 kmh 30.08 in1018.6 mb 0.00 in0.0 mm 0.00 in0.0 mm 0.00 in0.0 mm
04:22 PM 64.9°F18.3°C 59.7°F15.4°C 83% Calm Calm 4.9 mph7.9 kmh 30.08 in1018.6 mb 0.00 in0.0 mm 0.00 in0.0 mm 0.00 in0.0 mm
04:37 PM 64.9°F18.3°C 59.7°F15.4°C 83% 1.6 mph SSW2.6 kmh SSW 7.6 mph12.2 kmh 30.09 in1019.0 mb 0.00 in0.0 mm 0.00 in0.0 mm 0.00 in0.0 mm
04:52 PM 64.8°F18.2°C 59.9°F15.5°C 84% 2.5 mph S4.0 kmh S 4.9 mph7.9 kmh 30.09 in1019.0 mb 0.00 in0.0 mm 0.00 in0.0 mm 0.00 in0.0 mm
05:07 PM 64.2°F17.9°C 59.5°F15.3°C 85% 1.8 mph SW2.9 kmh SW 7.6 mph12.2 kmh 30.09 in1019.0 mb 0.00 in0.0 mm 0.00 in0.0 mm 0.00 in0.0 mm
05:22 PM 63.9°F17.7°C 59.9°F15.5°C 87% Calm Calm 7.6 mph12.2 kmh 30.10 in1019.3 mb 0.00 in0.0 mm 0.00 in0.0 mm 0.00 in0.0 mm
05:37 PM 63.5°F17.5°C 59.2°F15.1°C 86% 0.7 mph SW1.1 kmh SW 4.9 mph7.9 kmh 30.10 in1019.3 mb 0.00 in0.0 mm 0.00 in0.0 mm 0.00 in0.0 mm
05:53 PM 63.3°F17.4°C 59.0°F15.0°C 86% 1.6 mph S2.6 kmh S 7.6 mph12.2 kmh 30.10 in1019.3 mb 0.00 in0.0 mm 0.00 in0.0 mm 0.00 in0.0 mm
06:08 PM 63.3°F17.4°C 59.4°F15.2°C 87% Calm Calm 4.9 mph7.9 kmh 30.11 in1019.6 mb 0.00 in0.0 mm 0.00 in0.0 mm 0.00 in0.0 mm
06:23 PM 63.1°F17.3°C 59.2°F15.1°C 87% 1.8 mph S2.9 kmh S 4.9 mph7.9 kmh 30.11 in1019.6 mb 0.00 in0.0 mm 0.00 in0.0 mm 0.00 in0.0 mm
06:38 PM 63.0°F17.2°C 59.7°F15.4°C 89% 2.5 mph S4.0 kmh S 4.9 mph7.9 kmh 30.11 in1019.6 mb 0.00 in0.0 mm 0.00 in0.0 mm 0.00 in0.0 mm
06:53 PM 62.8°F17.1°C 59.7°F15.4°C 90% 2.2 mph SSW3.5 kmh SSW 4.9 mph7.9 kmh 30.11 in1019.6 mb 0.00 in0.0 mm 0.00 in0.0 mm 0.00 in0.0 mm
07:08 PM 62.6°F17.0°C 59.5°F15.3°C 90% Calm Calm 4.9 mph7.9 kmh 30.12 in1020.0 mb 0.00 in0.0 mm 0.00 in0.0 mm 0.00 in0.0 mm
07:23 PM 62.4°F16.9°C 59.4°F15.2°C 90% Calm Calm 2.5 mph4.0 kmh 30.12 in1020.0 mb 0.00 in0.0 mm 0.00 in0.0 mm 0.00 in0.0 mm
07:38 PM 62.2°F16.8°C 59.2°F15.1°C 90% Calm Calm -- 30.12 in1020.0 mb 0.00 in0.0 mm 0.00 in0.0 mm 0.00 in0.0 mm
07:53 PM 62.2°F16.8°C 59.2°F15.1°C 90% Calm Calm -- 30.14 in1020.7 mb 0.00 in0.0 mm 0.00 in0.0 mm 0.00 in0.0 mm
08:08 PM 62.2°F16.8°C 59.2°F15.1°C 90% 2.2 mph NW3.5 kmh NW 2.5 mph4.0 kmh 30.14 in1020.7 mb 0.00 in0.0 mm 0.00 in0.0 mm 0.00 in0.0 mm
08:23 PM 61.7°F16.5°C 58.1°F14.5°C 88% 4.9 mph NNW7.9 kmh NNW 7.6 mph12.2 kmh 30.14 in1020.7 mb 0.00 in0.0 mm 0.00 in0.0 mm 0.00 in0.0 mm
08:38 PM 60.8°F16.0°C 56.8°F13.8°C 87% 4.9 mph NW7.9 kmh NW 7.6 mph12.2 kmh 30.15 in1021.0 mb 0.00 in0.0 mm 0.00 in0.0 mm 0.00 in0.0 mm
08:53 PM 60.4°F15.8°C 56.3°F13.5°C 86% 5.4 mph NNW8.7 kmh NNW 7.6 mph12.2 kmh 30.16 in1021.3 mb 0.00 in0.0 mm 0.00 in0.0 mm 0.00 in0.0 mm
09:08 PM 60.3°F15.7°C 56.1°F13.4°C 86% 2.5 mph NNW4.0 kmh NNW 7.6 mph12.2 kmh 30.16 in1021.3 mb 0.00 in0.0 mm 0.00 in0.0 mm 0.00 in0.0 mm
09:23 PM 60.6°F15.9°C 56.5°F13.6°C 86% 3.4 mph NW5.5 kmh NW 7.6 mph12.2 kmh 30.16 in1021.3 mb 0.00 in0.0 mm 0.00 in0.0 mm 0.00 in0.0 mm
09:39 PM 60.4°F15.8°C 56.5°F13.6°C 87% 4.0 mph NNW6.4 kmh NNW 7.6 mph12.2 kmh 30.17 in1021.7 mb 0.00 in0.0 mm 0.00 in0.0 mm 0.00 in0.0 mm
09:54 PM 60.1°F15.6°C 56.1°F13.4°C 87% 3.4 mph NNW5.5 kmh NNW 7.6 mph12.2 kmh 30.17 in1021.7 mb 0.00 in0.0 mm 0.00 in0.0 mm 0.00 in0.0 mm
10:09 PM 59.9°F15.5°C 55.8°F13.2°C 86% 3.8 mph NW6.1 kmh NW 7.6 mph12.2 kmh 30.17 in1021.7 mb 0.00 in0.0 mm 0.00 in0.0 mm 0.00 in0.0 mm
10:24 PM 59.9°F15.5°C 55.4°F13.0°C 85% 3.8 mph NNW6.1 kmh NNW 7.6 mph12.2 kmh 30.17 in1021.7 mb 0.00 in0.0 mm 0.00 in0.0 mm 0.00 in0.0 mm
10:39 PM 59.7°F15.4°C 55.8°F13.2°C 87% 5.6 mph NNW9.0 kmh NNW 12.5 mph20.1 kmh 30.17 in1021.7 mb 0.00 in0.0 mm 0.00 in0.0 mm 0.00 in0.0 mm
10:54 PM 59.4°F15.2°C 54.5°F12.5°C 84% 3.8 mph NNW6.1 kmh NNW 10.1 mph16.3 kmh 30.17 in1021.7 mb 0.00 in0.0 mm 0.00 in0.0 mm 0.00 in0.0 mm
11:09 PM 59.5°F15.3°C 54.7°F12.6°C 84% 4.7 mph N7.6 kmh N 10.1 mph16.3 kmh 30.17 in1021.7 mb 0.00 in0.0 mm 0.00 in0.0 mm 0.00 in0.0 mm
11:24 PM 59.4°F15.2°C 54.9°F12.7°C 85% 6.3 mph NNW10.1 kmh NNW 10.1 mph16.3 kmh 30.17 in1021.7 mb 0.00 in0.0 mm 0.00 in0.0 mm 0.00 in0.0 mm
11:39 PM 59.2°F15.1°C 54.7°F12.6°C 85% 5.6 mph N9.0 kmh N 10.1 mph16.3 kmh 30.17 in1021.7 mb 0.00 in0.0 mm 0.00 in0.0 mm 0.00 in0.0 mm
11:54 PM 59.4°F15.2°C 54.1°F12.3°C 83% 6.9 mph NNW11.1 kmh NNW 10.1 mph16.3 kmh 30.17 in1021.7 mb 0.00 in0.0 mm 0.00 in0.0 mm 0.00 in0.0 mm